createdAt,value
2022-12-14T00:01:23.754Z,93512.53
2022-12-14T00:03:53.776Z,93520.66
2022-12-14T00:06:23.123Z,93515.97
2022-12-14T00:08:51.965Z,93514.16
2022-12-14T00:11:20.956Z,93495.22
2022-12-14T00:13:49.143Z,93503.44
2022-12-14T00:16:18.440Z,93524.84
2022-12-14T00:18:49.604Z,93515.06
2022-12-14T00:21:18.654Z,93518.19
2022-12-14T00:23:47.240Z,93525.97
2022-12-14T00:26:16.540Z,93530.19
2022-12-14T00:28:45.403Z,93539.22
2022-12-14T00:31:13.374Z,93529.88
2022-12-14T00:33:41.213Z,93527.63
2022-12-14T00:36:10.143Z,93513.16
2022-12-14T00:38:39.676Z,93506.59
2022-12-14T00:41:07.919Z,93517.06
2022-12-14T00:43:35.564Z,93519.53
2022-12-14T00:46:03.577Z,93516.72
2022-12-14T00:48:32.091Z,93510.59
2022-12-14T00:51:00.069Z,93512.69
2022-12-14T00:53:27.903Z,93503.72
2022-12-14T00:55:57.531Z,93521.72
2022-12-14T00:58:27.839Z,93532.16
2022-12-14T01:01:03.055Z,93521.81
2022-12-14T01:03:31.743Z,93531.72
2022-12-14T01:05:59.936Z,93528.03
2022-12-14T01:08:35.505Z,93521.56
2022-12-14T01:11:08.815Z,93525.69
2022-12-14T01:13:36.866Z,93522.00
2022-12-14T01:16:05.987Z,93508.56
2022-12-14T01:18:35.158Z,93508.56
2022-12-14T01:21:14.494Z,93503.69
2022-12-14T01:23:42.557Z,93506.63
2022-12-14T01:26:11.913Z,93518.88
2022-12-14T01:28:39.644Z,93517.88
2022-12-14T01:31:09.365Z,93511.28
2022-12-14T01:33:37.188Z,93499.69
2022-12-14T01:36:06.745Z,93493.16
2022-12-14T01:38:34.424Z,93492.34
2022-12-14T01:41:02.145Z,93507.81
2022-12-14T01:43:49.843Z,93503.34
2022-12-14T01:46:20.521Z,93520.53
2022-12-14T01:48:49.965Z,93521.78
2022-12-14T01:51:17.645Z,93520.31
2022-12-14T01:53:45.404Z,93531.34
2022-12-14T01:56:13.111Z,93533.13
2022-12-14T01:58:41.252Z,93520.53
2022-12-14T02:01:11.618Z,93510.28
2022-12-14T02:03:42.168Z,93513.94
2022-12-14T02:06:11.731Z,93510.56
2022-12-14T02:08:40.604Z,93503.63
2022-12-14T02:11:08.383Z,93509.19
2022-12-14T02:13:37.785Z,93501.59
2022-12-14T02:16:05.967Z,93495.84
2022-12-14T02:18:35.342Z,93487.34
2022-12-14T02:21:20.716Z,93469.97
2022-12-14T02:24:15.627Z,93474.06
2022-12-14T02:27:19.856Z,93476.19
2022-12-14T02:30:09.134Z,93469.22
2022-12-14T02:32:58.906Z,93468.78
2022-12-14T02:35:34.123Z,93457.72
2022-12-14T02:38:06.969Z,93455.44
2022-12-14T02:40:39.240Z,93449.50
2022-12-14T02:43:13.002Z,93434.97
2022-12-14T02:45:44.452Z,93442.28
2022-12-14T02:48:17.391Z,93447.47
2022-12-14T02:50:52.379Z,93455.06
2022-12-14T02:53:23.401Z,93461.44
2022-12-14T02:55:52.506Z,93461.63
2022-12-14T02:58:24.046Z,93452.31
2022-12-14T03:00:54.232Z,93441.50
2022-12-14T03:03:22.069Z,93432.16
2022-12-14T03:05:56.875Z,93424.19
2022-12-14T03:08:25.722Z,93419.75
2022-12-14T03:10:56.425Z,93423.03
2022-12-14T03:13:27.227Z,93424.91
2022-12-14T03:15:59.595Z,93429.41
2022-12-14T03:18:29.482Z,93430.69
2022-12-14T03:20:59.419Z,93434.41
2022-12-14T03:23:30.536Z,93430.34
2022-12-14T03:26:04.755Z,93416.25
2022-12-14T03:28:37.268Z,93424.03
2022-12-14T03:31:09.780Z,93425.69
2022-12-14T03:33:38.763Z,93424.66
2022-12-14T03:36:11.009Z,93423.03
2022-12-14T03:38:41.846Z,93423.66
2022-12-14T03:41:18.145Z,93424.28
2022-12-14T03:43:54.390Z,93424.91
2022-12-14T03:46:32.511Z,93419.22
2022-12-14T03:49:04.176Z,93418.03
2022-12-14T03:51:35.770Z,93412.72
2022-12-14T03:54:10.014Z,93408.69
2022-12-14T03:56:42.103Z,93412.41
2022-12-14T03:59:12.670Z,93416.69
2022-12-14T04:01:46.445Z,93412.78
2022-12-14T04:04:21.763Z,93423.41
2022-12-14T04:06:54.849Z,93423.16
2022-12-14T04:09:29.267Z,93419.03
2022-12-14T04:12:20.448Z,93416.44
2022-12-14T04:15:10.225Z,93416.69
2022-12-14T04:17:58.317Z,93393.44
2022-12-14T04:20:28.926Z,93391.81
2022-12-14T04:22:59.605Z,93387.13
2022-12-14T04:25:47.148Z,93380.56
2022-12-14T04:28:32.748Z,93380.94
2022-12-14T04:31:01.254Z,93371.75
2022-12-14T04:33:48.457Z,93376.06
2022-12-14T04:36:19.490Z,93361.72
2022-12-14T04:38:49.169Z,93363.97
2022-12-14T04:41:20.495Z,93356.03
2022-12-14T04:43:49.554Z,93347.50
2022-12-14T04:46:19.059Z,93342.38
2022-12-14T04:48:51.105Z,93338.47
2022-12-14T04:51:22.410Z,93343.41
2022-12-14T04:53:53.195Z,93350.34
2022-12-14T04:56:24.322Z,93353.19
2022-12-14T04:58:52.194Z,93348.94
2022-12-14T05:01:28.973Z,93353.66
2022-12-14T05:04:07.005Z,93348.16
2022-12-14T05:06:41.743Z,93346.09
2022-12-14T05:09:16.272Z,93342.41
2022-12-14T05:11:55.936Z,93350.19
2022-12-14T05:14:28.047Z,93348.19
2022-12-14T05:16:55.791Z,93349.72
2022-12-14T05:19:26.674Z,93343.00
2022-12-14T05:21:54.882Z,93322.00
2022-12-14T05:24:22.546Z,93320.22
2022-12-14T05:26:50.223Z,93313.13
2022-12-14T05:29:17.867Z,93324.16
2022-12-14T05:31:49.413Z,93315.78
2022-12-14T05:34:17.398Z,93314.56
2022-12-14T05:36:46.586Z,93311.03
2022-12-14T05:39:14.598Z,93321.03
2022-12-14T05:41:42.474Z,93318.19
2022-12-14T05:44:10.281Z,93305.06
2022-12-14T05:46:38.138Z,93309.94
2022-12-14T05:49:05.996Z,93317.72
2022-12-14T05:51:33.819Z,93309.00
2022-12-14T05:54:03.113Z,93310.56
2022-12-14T05:56:31.123Z,93304.25
2022-12-14T05:58:58.953Z,93296.72
2022-12-14T06:01:26.783Z,93301.44
2022-12-14T06:03:54.643Z,93302.88
2022-12-14T06:06:22.470Z,93305.16
2022-12-14T06:08:50.461Z,93300.06
2022-12-14T06:11:22.026Z,93296.81
2022-12-14T06:13:49.959Z,93289.25
2022-12-14T06:16:19.198Z,93287.41
2022-12-14T06:18:48.923Z,93279.91
2022-12-14T06:21:18.102Z,93279.44
2022-12-14T06:23:46.301Z,93272.13
2022-12-14T06:26:15.476Z,93272.47
2022-12-14T06:28:44.884Z,93270.63
2022-12-14T06:31:16.819Z,93270.41
2022-12-14T06:33:44.636Z,93266.75
2022-12-14T06:36:17.769Z,93264.31
2022-12-14T06:38:45.469Z,93263.50
2022-12-14T06:41:13.431Z,93260.69
2022-12-14T06:43:41.103Z,93257.03
2022-12-14T06:46:15.121Z,93254.59
2022-12-14T06:48:44.061Z,93257.03
2022-12-14T06:51:12.409Z,93251.53
2022-12-14T06:53:40.171Z,93260.91
2022-12-14T06:56:09.316Z,93245.44
2022-12-14T06:58:37.280Z,93243.38
2022-12-14T07:01:05.833Z,93243.97
2022-12-14T07:03:35.579Z,93234.59
2022-12-14T07:06:04.350Z,93224.41
2022-12-14T07:08:33.685Z,93211.34
2022-12-14T07:11:02.776Z,93209.94
2022-12-14T07:13:30.794Z,93213.41
2022-12-14T07:16:00.394Z,93216.31
2022-12-14T07:18:28.569Z,93227.56
2022-12-14T07:20:58.932Z,93218.34
2022-12-14T07:23:28.186Z,93224.06
2022-12-14T07:26:02.238Z,93224.88
2022-12-14T07:28:30.913Z,93218.31
2022-12-14T07:31:00.203Z,93213.41
2022-12-14T07:33:29.215Z,93211.22
2022-12-14T07:36:04.997Z,93215.69
2022-12-14T07:38:33.493Z,93211.00
2022-12-14T07:41:05.870Z,93208.13
2022-12-14T07:43:33.715Z,93202.03
2022-12-14T07:46:02.664Z,93209.41
2022-12-14T07:48:30.657Z,93195.72
2022-12-14T07:51:04.934Z,93197.97
2022-12-14T07:53:33.222Z,93194.28
2022-12-14T07:56:05.954Z,93192.44
2022-12-14T07:58:34.012Z,93191.63
2022-12-14T08:01:16.006Z,93188.97
2022-12-14T08:03:44.522Z,93172.59
2022-12-14T08:06:14.211Z,93180.38
2022-12-14T08:08:42.209Z,93172.00
2022-12-14T08:11:10.374Z,93161.97
2022-12-14T08:13:38.969Z,93160.56
2022-12-14T08:16:08.477Z,93161.56
2022-12-14T08:18:36.603Z,93159.72
2022-12-14T08:21:05.901Z,93163.63
2022-12-14T08:23:35.592Z,93163.22
2022-12-14T08:26:04.723Z,93164.81
2022-12-14T08:28:33.709Z,93163.41
2022-12-14T08:31:06.306Z,93164.81
2022-12-14T08:33:34.424Z,93161.97
2022-12-14T08:36:07.109Z,93165.88
2022-12-14T08:38:36.425Z,93162.97
2022-12-14T08:41:05.031Z,93159.50
2022-12-14T08:43:33.582Z,93160.94
2022-12-14T08:46:02.281Z,93152.94
2022-12-14T08:48:30.269Z,93145.16
2022-12-14T08:51:02.784Z,93138.16
2022-12-14T08:53:30.826Z,93134.47
2022-12-14T08:56:00.783Z,93127.88
2022-12-14T08:58:28.504Z,93129.09
2022-12-14T09:01:03.255Z,93128.69
2022-12-14T09:03:31.714Z,93121.31
2022-12-14T09:06:04.426Z,93125.38
2022-12-14T09:08:32.678Z,93131.16
2022-12-14T09:11:02.144Z,93131.75
2022-12-14T09:13:30.869Z,93134.81
2022-12-14T09:16:00.056Z,93124.34
2022-12-14T09:18:28.659Z,93126.00
2022-12-14T09:20:57.041Z,93117.97
2022-12-14T09:23:25.553Z,93127.19
2022-12-14T09:26:02.016Z,93123.72
2022-12-14T09:28:30.404Z,93126.41
2022-12-14T09:30:58.588Z,93116.75
2022-12-14T09:33:27.004Z,93107.75
2022-12-14T09:35:58.062Z,93106.06
2022-12-14T09:38:25.976Z,93110.97
2022-12-14T09:40:57.841Z,93102.56
2022-12-14T09:43:40.444Z,93085.09
2022-12-14T09:46:25.404Z,93083.09
2022-12-14T09:48:53.396Z,93070.75
2022-12-14T09:51:22.895Z,93070.31
2022-12-14T09:53:57.936Z,93058.78
2022-12-14T09:56:28.671Z,93065.94
2022-12-14T09:59:00.280Z,93057.50
2022-12-14T10:02:13.937Z,93063.22
2022-12-14T10:04:47.801Z,93064.50
2022-12-14T10:07:20.227Z,93060.78
2022-12-14T10:09:50.931Z,93053.41
2022-12-14T10:12:34.084Z,93052.94
2022-12-14T10:15:15.407Z,93041.59
2022-12-14T10:17:56.741Z,93038.06
2022-12-14T10:20:26.420Z,93040.09
2022-12-14T10:22:54.710Z,93040.03
2022-12-14T10:25:26.457Z,93031.16
2022-12-14T10:28:10.985Z,93028.06
2022-12-14T10:30:43.799Z,93034.13
2022-12-14T10:33:18.567Z,93040.25
2022-12-14T10:35:52.678Z,93036.69
2022-12-14T10:38:27.724Z,93028.41
2022-12-14T10:41:01.724Z,93026.50
2022-12-14T10:43:43.264Z,93024.84
2022-12-14T10:46:19.801Z,93025.44
2022-12-14T10:48:53.674Z,93022.34
2022-12-14T10:51:24.958Z,93024.94
2022-12-14T11:10:42.790Z,93009.59
2022-12-14T11:13:49.668Z,93027.84
2022-12-14T11:19:42.477Z,93002.47
2022-12-14T11:23:23.429Z,93009.81
2022-12-14T11:26:04.810Z,93007.88
2022-12-14T11:28:39.892Z,92981.09
2022-12-14T11:31:12.402Z,92997.84
2022-12-14T11:33:50.365Z,92974.78
2022-12-14T11:36:26.799Z,92984.75
2022-12-14T11:39:24.996Z,92980.59
2022-12-14T11:42:09.788Z,92976.88
2022-12-14T11:44:39.431Z,92985.38
2022-12-14T11:47:10.762Z,92993.97
2022-12-14T11:49:46.544Z,92990.97
2022-12-14T11:52:19.864Z,93008.75
2022-12-14T14:34:47.762Z,92997.22
2022-12-14T16:04:39.599Z,93022.75
2022-12-14T16:07:10.031Z,93030.69
2022-12-14T16:09:40.550Z,93035.06
2022-12-14T16:12:10.933Z,93039.16
2022-12-14T16:14:45.486Z,93035.75
2022-12-14T16:17:14.997Z,93036.34
2022-12-14T16:19:59.667Z,93039.00
2022-12-14T16:22:29.770Z,93049.84
2022-12-14T16:25:17.488Z,93037.09
2022-12-14T16:27:49.988Z,93044.19
2022-12-14T16:30:24.113Z,93046.06
2022-12-14T16:32:54.787Z,93055.03
2022-12-14T16:35:25.283Z,93055.34
2022-12-14T16:37:55.907Z,93061.06
2022-12-14T16:40:34.842Z,93052.31
2022-12-14T16:43:02.975Z,93075.72
2022-12-14T16:46:07.978Z,93066.63
2022-12-14T16:48:38.181Z,93066.63
2022-12-14T16:51:50.864Z,93076.53
2022-12-14T16:54:23.877Z,93083.22
2022-12-14T16:56:55.493Z,93085.28
2022-12-14T16:59:25.006Z,93086.84
2022-12-14T17:01:53.147Z,93088.97
2022-12-14T17:04:21.721Z,93095.94
2022-12-14T17:06:53.395Z,93102.38
2022-12-14T17:09:22.976Z,93104.94
2022-12-14T17:11:52.228Z,93107.88
2022-12-14T17:14:20.423Z,93119.41
2022-12-14T17:16:50.090Z,93127.34
2022-12-14T17:19:21.562Z,93134.34
2022-12-14T17:21:51.986Z,93131.41
2022-12-14T17:24:21.181Z,93140.84
2022-12-14T17:26:50.119Z,93138.19
2022-12-14T17:29:21.538Z,93143.53
2022-12-14T17:31:50.229Z,93154.63
2022-12-14T17:34:18.946Z,93157.53
2022-12-14T17:36:46.899Z,93158.72
2022-12-14T17:39:16.028Z,93155.81
2022-12-14T17:41:45.047Z,93155.44
2022-12-14T17:44:14.678Z,93154.28
2022-12-14T17:46:42.595Z,93152.41
2022-12-14T17:49:13.296Z,93154.63
2022-12-14T17:51:42.336Z,93165.94
2022-12-14T17:54:16.895Z,93169.69
2022-12-14T17:56:45.603Z,93175.28
2022-12-14T17:59:13.464Z,93177.38
2022-12-14T18:01:42.235Z,93185.19
2022-12-14T18:04:10.184Z,93182.75
2022-12-14T18:06:38.027Z,93181.91
2022-12-14T18:09:07.921Z,93185.91
2022-12-14T18:11:45.178Z,93182.38
2022-12-14T18:14:25.162Z,93199.53
2022-12-14T18:16:53.803Z,93206.28
2022-12-14T18:19:21.509Z,93225.28
2022-12-14T18:21:49.521Z,93222.63
2022-12-14T18:24:22.704Z,93222.63
2022-12-14T18:26:54.876Z,93221.56
2022-12-14T18:29:22.600Z,93230.66
2022-12-14T18:31:50.431Z,93230.66
2022-12-14T18:34:18.469Z,93236.03
2022-12-14T18:36:46.184Z,93239.78
2022-12-14T18:39:13.869Z,93241.03
2022-12-14T18:41:41.536Z,93248.03
2022-12-14T18:44:11.752Z,93258.09
2022-12-14T18:46:40.335Z,93249.19
2022-12-14T18:49:08.048Z,93244.56
2022-12-14T18:51:35.787Z,93232.53
2022-12-14T18:54:03.952Z,93242.09
2022-12-14T18:56:31.856Z,93232.28
2022-12-14T18:59:00.435Z,93228.91
2022-12-14T19:01:29.815Z,93225.28
2022-12-14T19:03:57.811Z,93227.97
2022-12-14T19:21:26.408Z,93241.97
2022-12-14T19:23:58.362Z,93246.28
2022-12-14T19:26:28.131Z,93243.81
2022-12-14T19:28:55.991Z,93252.59
2022-12-14T19:31:24.220Z,93251.75
2022-12-14T19:33:53.698Z,93242.56
2022-12-14T19:36:22.839Z,93248.84
2022-12-14T19:38:50.939Z,93247.94
2022-12-14T19:41:21.367Z,93249.09
2022-12-14T19:43:49.226Z,93262.59
2022-12-14T19:46:18.024Z,93269.59
2022-12-14T19:48:46.044Z,93268.19
2022-12-14T19:51:14.800Z,93269.25
2022-12-14T19:53:44.952Z,93273.53
2022-12-14T19:56:15.511Z,93270.28
2022-12-14T19:58:43.188Z,93279.13
2022-12-14T20:01:12.027Z,93281.00
2022-12-14T20:03:40.214Z,93283.69
2022-12-14T20:06:08.519Z,93297.19
2022-12-14T20:08:36.919Z,93299.53
2022-12-14T20:11:07.497Z,93294.75
2022-12-14T20:13:35.231Z,93293.72
2022-12-14T20:16:03.071Z,93303.00
2022-12-14T20:18:31.889Z,93303.69
2022-12-14T20:21:03.129Z,93304.63
2022-12-14T20:23:31.150Z,93316.69
2022-12-14T20:26:01.153Z,93317.28
2022-12-14T20:28:30.299Z,93307.75
2022-12-14T20:30:58.126Z,93313.47
2022-12-14T20:33:30.228Z,93323.84
2022-12-14T20:35:58.633Z,93324.66
2022-12-14T20:38:26.506Z,93327.56
2022-12-14T20:40:54.667Z,93327.56
2022-12-14T20:43:22.516Z,93336.75
2022-12-14T20:45:51.658Z,93336.75
2022-12-14T20:48:19.813Z,93335.56
2022-12-14T20:50:51.126Z,93335.63
2022-12-14T20:53:18.891Z,93334.59
2022-12-14T20:55:46.622Z,93349.47
2022-12-14T20:58:14.412Z,93356.66
2022-12-14T21:00:42.373Z,93356.44
2022-12-14T21:03:11.563Z,93354.44
2022-12-14T21:05:40.680Z,93344.91
2022-12-14T21:08:08.348Z,93353.09
2022-12-14T21:10:36.596Z,93346.09
2022-12-14T21:13:07.601Z,93353.53
2022-12-14T21:15:36.468Z,93345.34
2022-12-14T21:18:04.313Z,93346.53
2022-12-14T21:20:33.461Z,93348.19
2022-12-14T21:23:01.174Z,93355.16
2022-12-14T21:25:28.812Z,93351.31
2022-12-14T21:27:56.473Z,93353.53
2022-12-14T21:30:24.140Z,93349.34
2022-12-14T21:32:51.911Z,93355.28
2022-12-14T21:35:19.532Z,93359.63
2022-12-14T21:37:48.627Z,93357.97
2022-12-14T21:40:36.350Z,93369.75
2022-12-14T21:43:03.968Z,93386.47
2022-12-14T21:45:31.650Z,93379.56
2022-12-14T21:47:59.397Z,93392.38
2022-12-14T21:50:27.051Z,93403.16
2022-12-14T21:52:56.029Z,93396.84
2022-12-14T21:55:23.784Z,93395.63
2022-12-14T21:58:08.782Z,93393.88
2022-12-14T22:00:38.457Z,93385.97
2022-12-14T22:03:06.184Z,93385.84
2022-12-14T22:05:33.930Z,93387.91
2022-12-14T22:08:03.067Z,93386.44
2022-12-14T22:10:30.746Z,93390.50
2022-12-14T22:12:58.472Z,93386.72
2022-12-14T22:15:26.162Z,93397.06
2022-12-14T22:17:53.843Z,93400.91
2022-12-14T22:20:21.531Z,93396.41
2022-12-14T22:22:49.190Z,93403.94
2022-12-14T22:25:18.238Z,93404.03
2022-12-14T22:27:50.079Z,93408.56
2022-12-14T22:30:17.854Z,93403.66
2022-12-14T22:32:45.506Z,93411.84
2022-12-14T22:35:13.262Z,93405.44
2022-12-14T22:37:40.911Z,93411.19
2022-12-14T22:40:09.830Z,93409.94
2022-12-14T22:42:38.900Z,93399.81
2022-12-14T22:45:07.602Z,93409.25
2022-12-14T22:47:35.302Z,93402.84
2022-12-14T22:50:03.079Z,93399.97
2022-12-14T22:52:30.740Z,93408.81
2022-12-14T22:54:58.660Z,93412.31
2022-12-14T22:57:26.415Z,93412.31
2022-12-14T22:59:58.117Z,93408.56
2022-12-14T23:02:26.143Z,93413.34
2022-12-14T23:04:54.088Z,93419.72
2022-12-14T23:07:21.821Z,93416.84
2022-12-14T23:10:07.285Z,93424.78
2022-12-14T23:12:52.254Z,93425.28
2022-12-14T23:15:38.689Z,93420.47
2022-12-14T23:18:25.161Z,93423.50
2022-12-14T23:21:10.809Z,93428.44
2022-12-14T23:23:56.750Z,93430.97
2022-12-14T23:26:41.883Z,93436.63
2022-12-14T23:29:27.308Z,93429.41
2022-12-14T23:32:14.471Z,93442.00
2022-12-14T23:34:59.481Z,93437.88
2022-12-14T23:37:44.893Z,93445.53
2022-12-14T23:40:30.245Z,93443.34
2022-12-14T23:43:15.499Z,93440.03
2022-12-14T23:46:01.408Z,93426.50
2022-12-14T23:48:48.036Z,93420.69
2022-12-14T23:51:33.396Z,93425.38
2022-12-14T23:54:18.683Z,93432.97
2022-12-14T23:57:03.876Z,93441.84
2022-12-14T23:59:49.741Z,93437.06
